Time;durP1;ratioP1;P1;durP2;ratioP2;P2;SDS_P1;SDS_P2;PMS_P1;PMS_P2;Temp;Humidity;BMP_temperature;BMP_pressure;BME280_temperature;BME280_humidity;BME280_pressure;Samples;Min_cycle;Max_cycle;Signal;HPM_P1;HPM_P2
2023/11/27 00:00:13;;;;;;;2.07;1.60;;;3.90;99.90;;;;;;5044255;28;20550;-71
2023/11/27 00:02:40;;;;;;;1.97;1.43;;;3.90;99.90;;;;;;5040065;28;20305;-71
2023/11/27 00:05:08;;;;;;;1.73;1.40;;;3.90;99.90;;;;;;5046018;28;20217;-72
2023/11/27 00:07:35;;;;;;;1.40;1.30;;;4.00;99.90;;;;;;5046557;28;20800;-72
2023/11/27 00:10:04;;;;;;;2.30;1.33;;;4.00;99.90;;;;;;5052305;28;20210;-73
2023/11/27 00:12:31;;;;;;;1.27;1.00;;;3.90;99.90;;;;;;5044457;28;20201;-73
2023/11/27 00:14:58;;;;;;;1.97;1.40;;;3.90;99.90;;;;;;5053204;28;20561;-74
2023/11/27 00:17:25;;;;;;;2.90;1.33;;;3.90;99.90;;;;;;5049287;28;20546;-74
2023/11/27 00:19:52;;;;;;;2.53;1.43;;;3.90;99.90;;;;;;5049781;28;20563;-74
2023/11/27 00:22:19;;;;;;;2.20;1.50;;;3.90;99.90;;;;;;5049508;28;20297;-75
2023/11/27 00:24:46;;;;;;;2.10;1.63;;;3.90;99.90;;;;;;5063023;28;20224;-75
2023/11/27 00:27:15;;;;;;;1.87;1.50;;;4.00;99.90;;;;;;5060917;28;20240;-75
2023/11/27 00:29:43;;;;;;;4.53;1.70;;;4.00;99.90;;;;;;5068011;28;20194;-73
2023/11/27 00:32:10;;;;;;;2.67;1.50;;;4.00;99.90;;;;;;5051270;28;20202;-73
2023/11/27 00:34:37;;;;;;;3.10;1.57;;;4.00;99.90;;;;;;5068419;28;20628;-76
2023/11/27 00:37:04;;;;;;;1.43;1.33;;;4.10;99.90;;;;;;5068754;28;20235;-73
2023/11/27 00:39:31;;;;;;;1.27;1.17;;;4.20;99.90;;;;;;5067838;28;20217;-75
2023/11/27 00:41:58;;;;;;;1.90;1.27;;;4.20;99.90;;;;;;5066840;28;20278;-75
2023/11/27 00:44:27;;;;;;;0.90;0.90;;;4.30;99.90;;;;;;5065871;28;20206;-76
2023/11/27 00:46:54;;;;;;;1.30;1.20;;;4.30;99.90;;;;;;5061390;28;20210;-74
2023/11/27 00:49:21;;;;;;;1.20;1.10;;;4.40;99.90;;;;;;5055244;28;20315;-74
2023/11/27 00:51:49;;;;;;;0.80;0.80;;;4.40;99.90;;;;;;5054524;28;20229;-76
2023/11/27 00:54:16;;;;;;;0.70;0.70;;;4.40;99.90;;;;;;5050141;28;20218;-74
2023/11/27 00:56:43;;;;;;;1.00;0.90;;;4.40;99.90;;;;;;5087240;28;20655;-75
2023/11/27 00:59:10;;;;;;;0.63;0.63;;;4.40;99.90;;;;;;5047836;28;20297;-75
2023/11/27 01:01:38;;;;;;;1.00;0.90;;;4.40;99.90;;;;;;5049320;28;20205;-73
2023/11/27 01:04:06;;;;;;;0.90;0.90;;;4.40;99.90;;;;;;5049558;28;20198;-73
2023/11/27 01:06:33;;;;;;;0.90;0.90;;;4.40;99.90;;;;;;5055411;28;20268;-76
2023/11/27 01:09:00;;;;;;;0.73;0.73;;;4.40;99.90;;;;;;5059204;28;20491;-73
2023/11/27 01:11:27;;;;;;;0.80;0.80;;;4.40;99.90;;;;;;5056000;28;20211;-74
2023/11/27 01:13:55;;;;;;;3.00;0.77;;;4.40;99.90;;;;;;5050132;28;20221;-74
2023/11/27 01:16:22;;;;;;;0.80;0.80;;;4.40;99.90;;;;;;5049779;28;20203;-74
2023/11/27 01:18:51;;;;;;;1.30;1.00;;;4.50;99.90;;;;;;5054223;28;20193;-74
2023/11/27 01:21:18;;;;;;;0.70;0.70;;;4.50;99.90;;;;;;5061678;28;20194;-74
2023/11/27 01:23:45;;;;;;;1.00;0.90;;;4.50;99.90;;;;;;5052268;28;20291;-74
2023/11/27 01:26:12;;;;;;;0.70;0.70;;;4.50;99.90;;;;;;5048271;28;20275;-74
2023/11/27 01:28:39;;;;;;;0.80;0.80;;;4.50;99.90;;;;;;5051746;28;20214;-74
2023/11/27 01:31:08;;;;;;;0.80;0.80;;;4.50;99.90;;;;;;5054327;28;20209;-74
2023/11/27 01:33:35;;;;;;;0.90;0.90;;;4.50;99.90;;;;;;5047888;28;20255;-73
2023/11/27 01:36:04;;;;;;;1.17;1.07;;;4.50;99.90;;;;;;5056169;28;20328;-74
2023/11/27 01:38:31;;;;;;;1.13;1.10;;;4.50;99.90;;;;;;5054311;28;20198;-74
2023/11/27 01:40:58;;;;;;;1.57;1.13;;;4.50;99.90;;;;;;5060037;28;20300;-74
2023/11/27 01:43:25;;;;;;;1.20;1.03;;;4.60;99.90;;;;;;5063458;28;20205;-74
2023/11/27 01:46:15;;;;;;;1.00;1.00;;;4.60;99.90;;;;;;5053164;28;20203;-74
2023/11/27 01:48:43;;;;;;;1.20;0.90;;;4.50;99.90;;;;;;5053992;28;20232;-74
2023/11/27 01:51:11;;;;;;;1.27;1.03;;;4.50;99.90;;;;;;5053235;28;20649;-74
2023/11/27 01:53:39;;;;;;;0.83;0.83;;;4.60;99.90;;;;;;5052694;28;20221;-76
2023/11/27 01:56:07;;;;;;;1.20;1.10;;;4.60;99.90;;;;;;5053056;28;20207;-76
2023/11/27 01:58:34;;;;;;;1.40;1.30;;;4.60;99.90;;;;;;5049850;28;20210;-76
2023/11/27 11:58:38;;;;;;;23.83;11.50;;;5.80;99.90;;;;;;6044700;22;20195;-67
2023/11/27 12:01:08;;;;;;;22.30;11.13;;;5.90;99.90;;;;;;5030768;28;20284;-68
2023/11/27 12:03:36;;;;;;;25.47;11.40;;;5.80;99.90;;;;;;5036909;28;20232;-67
2023/11/27 12:06:13;;;;;;;20.00;10.57;;;5.90;99.90;;;;;;5044028;28;20300;-67
2023/11/27 12:08:44;;;;;;;21.80;9.40;;;5.90;99.90;;;;;;5040301;28;20658;-67
2023/11/27 12:11:14;;;;;;;24.40;9.83;;;6.00;99.90;;;;;;5043178;28;20217;-66
2023/11/27 12:13:44;;;;;;;19.27;9.20;;;6.10;99.90;;;;;;5043043;28;20277;-68
2023/11/27 12:16:12;;;;;;;17.10;8.53;;;6.10;99.90;;;;;;5043876;28;20319;-68
2023/11/27 12:18:43;;;;;;;16.53;7.80;;;6.20;99.90;;;;;;5038465;28;20236;-68
2023/11/27 12:21:11;;;;;;;14.33;8.03;;;6.10;99.90;;;;;;5017246;28;20208;-68
2023/11/27 12:23:43;;;;;;;5.90;3.97;;;6.20;99.90;;;;;;5044678;28;20267;-67
2023/11/27 12:26:16;;;;;;;3.27;1.70;;;6.20;99.90;;;;;;5042597;28;20288;-68
2023/11/27 12:28:46;;;;;;;5.00;2.33;;;6.20;99.90;;;;;;5043387;28;20826;-71
2023/11/27 12:31:16;;;;;;;2.90;1.83;;;6.10;99.90;;;;;;5042875;28;20259;-68
2023/11/27 12:33:44;;;;;;;1.83;1.57;;;5.90;99.90;;;;;;5041262;28;20612;-67
2023/11/27 12:36:11;;;;;;;2.10;1.87;;;5.80;99.90;;;;;;5045199;28;20749;-67
2023/11/27 12:38:40;;;;;;;1.70;1.60;;;5.70;99.90;;;;;;5046257;28;20290;-66
2023/11/27 12:41:08;;;;;;;1.60;1.50;;;5.60;99.90;;;;;;5040137;28;20282;-66
2023/11/27 12:43:36;;;;;;;1.80;1.63;;;5.60;99.90;;;;;;5045931;28;20204;-66
2023/11/27 12:46:06;;;;;;;2.67;1.50;;;5.50;99.90;;;;;;5044793;28;20204;-66
2023/11/27 12:48:34;;;;;;;1.53;1.40;;;5.50;99.90;;;;;;5036940;28;20189;-67
2023/11/27 12:51:02;;;;;;;2.07;1.60;;;5.50;99.90;;;;;;5037708;28;20489;-66
2023/11/27 12:53:30;;;;;;;1.63;1.50;;;5.50;99.90;;;;;;5040482;28;20209;-66
2023/11/27 12:55:57;;;;;;;1.50;1.40;;;5.60;99.90;;;;;;5028239;28;20212;-66
2023/11/27 12:58:27;;;;;;;1.70;1.60;;;5.60;99.90;;;;;;5023188;28;20236;-66
2023/11/27 13:00:56;;;;;;;1.60;1.47;;;5.70;99.90;;;;;;5043403;28;20240;-66
2023/11/27 13:03:25;;;;;;;1.37;1.27;;;5.70;99.90;;;;;;5044463;28;20239;-66
2023/11/27 13:05:52;;;;;;;2.00;1.90;;;5.70;99.90;;;;;;5042499;28;20228;-66
2023/11/27 13:08:24;;;;;;;2.43;2.17;;;5.70;99.90;;;;;;5036208;28;20239;-67
2023/11/27 13:10:51;;;;;;;3.00;2.30;;;5.70;99.90;;;;;;5026925;28;20666;-66
2023/11/27 13:13:21;;;;;;;2.20;2.00;;;5.70;99.90;;;;;;5044028;28;20208;-66
2023/11/27 13:15:48;;;;;;;2.10;1.90;;;5.70;99.90;;;;;;5044722;28;20706;-66
2023/11/27 13:18:16;;;;;;;3.00;1.80;;;5.70;99.90;;;;;;5043376;28;20309;-66
2023/11/27 13:20:48;;;;;;;1.93;1.57;;;5.80;99.90;;;;;;5047159;28;20531;-67
2023/11/27 13:23:16;;;;;;;1.50;1.40;;;5.80;99.90;;;;;;5045293;28;20612;-66
2023/11/27 13:25:43;;;;;;;1.70;1.60;;;5.80;99.90;;;;;;5046241;28;20235;-67
2023/11/27 13:28:16;;;;;;;1.60;1.50;;;5.80;99.90;;;;;;5020838;28;20201;-67
2023/11/27 13:30:44;;;;;;;2.30;1.90;;;5.80;99.90;;;;;;5035660;28;20198;-66
2023/11/27 13:33:11;;;;;;;3.20;1.83;;;5.70;99.90;;;;;;5043499;28;20219;-68
2023/11/27 13:35:40;;;;;;;2.00;1.70;;;5.70;99.90;;;;;;5048054;28;20493;-67
2023/11/27 13:38:15;;;;;;;2.07;1.87;;;5.60;99.90;;;;;;5049250;28;20323;-66
2023/11/27 13:40:46;;;;;;;2.57;1.90;;;5.60;99.90;;;;;;5046898;28;20784;-67
2023/11/27 13:43:14;;;;;;;2.67;1.90;;;5.60;99.90;;;;;;5046523;28;20200;-67
2023/11/27 13:45:41;;;;;;;2.80;1.97;;;5.60;99.90;;;;;;5042600;28;20198;-67
2023/11/27 13:48:13;;;;;;;2.83;2.00;;;5.60;99.90;;;;;;5046911;28;20208;-67
2023/11/27 13:50:43;;;;;;;4.63;2.13;;;5.60;99.90;;;;;;5045888;28;20199;-66
2023/11/27 13:53:15;;;;;;;4.23;2.10;;;5.70;99.90;;;;;;5042877;28;20616;-66
2023/11/27 13:55:42;;;;;;;2.97;2.30;;;5.80;99.90;;;;;;5044413;28;20204;-66
2023/11/27 13:58:10;;;;;;;2.90;1.80;;;5.80;99.90;;;;;;5046166;28;20306;-66
2023/11/27 14:00:48;;;;;;;2.87;1.70;;;5.80;99.90;;;;;;5042251;28;20235;-66
2023/11/27 14:03:18;;;;;;;2.23;1.70;;;5.80;99.90;;;;;;5046030;28;20199;-67
2023/11/27 14:05:49;;;;;;;2.20;1.80;;;5.70;99.90;;;;;;5029539;28;20290;-67
2023/11/27 14:08:21;;;;;;;2.73;2.03;;;5.70;99.90;;;;;;5048441;28;20192;-66
2023/11/27 14:13:34;;;;;;;3.63;2.23;;;5.70;99.90;;;;;;5043836;28;20201;-66
2023/11/27 14:16:02;;;;;;;2.57;1.80;;;5.60;99.90;;;;;;5027061;28;20632;-71
2023/11/27 14:24:12;;;;;;;1.67;1.50;;;5.60;99.90;;;;;;5041925;28;20256;-67
2023/11/27 14:27:16;;;;;;;1.83;1.50;;;5.60;99.90;;;;;;5043900;28;20240;-66
2023/11/27 14:29:43;;;;;;;1.67;1.57;;;5.70;99.90;;;;;;5043178;28;20272;-66
2023/11/27 14:32:12;;;;;;;1.50;1.40;;;5.70;99.90;;;;;;5043016;28;20926;-65
2023/11/27 14:34:39;;;;;;;2.93;1.57;;;5.60;99.90;;;;;;5048014;28;20294;-66
2023/11/27 14:37:08;;;;;;;2.10;1.77;;;5.60;99.90;;;;;;5036627;28;20400;-66
2023/11/27 14:39:38;;;;;;;2.00;1.80;;;5.60;99.90;;;;;;5046408;28;20251;-66
2023/11/27 14:42:07;;;;;;;1.90;1.70;;;5.60;99.90;;;;;;5048988;28;20204;-66
2023/11/27 14:44:34;;;;;;;2.57;2.20;;;5.50;99.90;;;;;;5028472;28;20205;-67
2023/11/27 14:47:01;;;;;;;3.07;2.13;;;5.60;99.90;;;;;;5044721;28;20633;-66
2023/11/27 14:49:28;;;;;;;3.63;2.40;;;5.60;99.90;;;;;;5038718;28;20294;-66
2023/11/27 14:52:03;;;;;;;3.97;2.13;;;5.50;99.90;;;;;;5037700;28;20253;-67
2023/11/27 14:54:30;;;;;;;3.23;2.53;;;5.50;99.90;;;;;;5045605;28;20654;-65
2023/11/27 14:57:00;;;;;;;3.30;2.47;;;5.40;99.90;;;;;;5046581;28;20545;-66
2023/11/27 14:59:27;;;;;;;5.50;2.57;;;5.40;99.90;;;;;;5031870;28;20234;-66
2023/11/27 15:01:54;;;;;;;3.03;2.30;;;5.40;99.90;;;;;;5052753;28;20568;-66
2023/11/27 15:04:23;;;;;;;5.37;3.33;;;5.40;99.90;;;;;;5050668;28;20199;-67
2023/11/27 15:06:51;;;;;;;4.83;3.27;;;5.40;99.90;;;;;;5042590;28;20208;-66
2023/11/27 15:09:22;;;;;;;6.90;3.40;;;5.40;99.90;;;;;;5050829;28;20287;-67
2023/11/27 15:11:51;;;;;;;4.47;3.27;;;5.40;99.90;;;;;;5048449;28;20196;-66
2023/11/27 15:14:21;;;;;;;7.27;3.90;;;5.40;99.90;;;;;;5044266;28;20257;-67
2023/11/27 15:16:48;;;;;;;8.30;3.90;;;5.40;99.90;;;;;;5050832;28;20196;-66
2023/11/27 15:19:18;;;;;;;4.83;3.27;;;5.40;99.90;;;;;;5050751;28;20705;-66
2023/11/27 15:21:46;;;;;;;4.37;3.10;;;5.40;99.90;;;;;;5032047;28;20365;-66
2023/11/27 15:24:14;;;;;;;4.67;3.40;;;5.40;99.90;;;;;;5050881;28;20207;-66
2023/11/27 15:26:42;;;;;;;6.67;4.07;;;5.40;99.90;;;;;;5046023;28;20668;-67
2023/11/27 15:29:12;;;;;;;6.23;3.93;;;5.40;99.90;;;;;;5029975;28;20273;-66
2023/11/27 15:31:41;;;;;;;4.67;3.10;;;5.40;99.90;;;;;;5048396;28;20200;-66
2023/11/27 15:34:09;;;;;;;6.67;3.73;;;5.50;99.90;;;;;;5026044;28;20188;-67
2023/11/27 15:36:37;;;;;;;8.00;4.17;;;5.50;99.90;;;;;;5008548;28;20282;-68
2023/11/27 15:39:20;;;;;;;8.00;4.30;;;5.50;99.90;;;;;;5041547;28;20210;-67
2023/11/27 15:41:48;;;;;;;4.90;3.60;;;5.50;99.90;;;;;;5050779;28;20284;-67
2023/11/27 15:44:15;;;;;;;7.87;4.40;;;5.50;99.90;;;;;;5047809;28;20294;-67
2023/11/27 15:46:44;;;;;;;7.63;4.57;;;5.40;99.90;;;;;;5043154;28;20257;-68
2023/11/27 15:49:11;;;;;;;7.13;4.20;;;5.50;99.90;;;;;;5036809;28;20188;-68
2023/11/27 15:51:38;;;;;;;6.40;3.93;;;5.40;99.90;;;;;;5038990;28;20209;-68
2023/11/27 15:54:07;;;;;;;7.80;4.23;;;5.40;99.90;;;;;;5045402;28;20713;-67
2023/11/27 15:56:34;;;;;;;7.47;4.20;;;5.50;99.90;;;;;;5043589;28;20220;-67
2023/11/27 15:59:01;;;;;;;7.97;4.10;;;5.40;99.90;;;;;;5047178;28;20559;-67
2023/11/27 16:01:29;;;;;;;6.90;4.17;;;5.40;99.90;;;;;;5048664;28;20613;-67
2023/11/27 16:04:00;;;;;;;8.97;5.23;;;5.30;99.90;;;;;;5040950;28;20680;-68
2023/11/27 16:06:28;;;;;;;7.57;4.43;;;5.40;99.90;;;;;;5048150;28;20226;-67
2023/11/27 16:08:56;;;;;;;9.73;4.20;;;5.40;99.90;;;;;;5047652;28;20224;-67
2023/11/27 16:11:23;;;;;;;9.30;4.83;;;5.40;99.90;;;;;;5040123;28;20200;-67
2023/11/27 16:13:50;;;;;;;15.33;6.50;;;5.30;99.90;;;;;;5040814;28;20237;-67
2023/11/27 16:16:18;;;;;;;17.97;6.63;;;5.30;99.90;;;;;;5048530;28;20209;-67
2023/11/27 16:18:46;;;;;;;14.40;6.80;;;5.30;99.90;;;;;;5045955;28;20735;-68
2023/11/27 16:21:19;;;;;;;13.87;6.17;;;5.30;99.90;;;;;;5029820;28;21011;-67
2023/11/27 16:23:47;;;;;;;11.20;5.60;;;5.30;99.90;;;;;;5028131;28;20329;-67
2023/11/27 16:26:14;;;;;;;8.03;4.53;;;5.20;99.90;;;;;;5048173;28;20647;-67
2023/11/27 16:28:43;;;;;;;9.03;4.70;;;5.10;99.90;;;;;;5045291;28;20578;-67
2023/11/27 16:31:11;;;;;;;9.30;4.83;;;5.10;99.90;;;;;;5047508;28;20195;-67
2023/11/27 16:33:38;;;;;;;7.30;4.43;;;5.10;99.90;;;;;;5046792;28;20200;-67
2023/11/27 16:36:06;;;;;;;8.87;4.97;;;5.10;99.90;;;;;;5044576;28;20199;-66
2023/11/27 16:38:35;;;;;;;14.80;4.30;;;5.10;99.90;;;;;;5046552;28;20483;-67
2023/11/27 16:41:02;;;;;;;6.80;4.27;;;5.10;99.90;;;;;;5028060;28;20234;-67
2023/11/27 16:43:29;;;;;;;7.97;4.80;;;5.20;99.90;;;;;;5047340;28;20203;-68
2023/11/27 16:45:58;;;;;;;7.17;4.27;;;5.10;99.90;;;;;;5046521;28;20208;-67
2023/11/27 16:48:28;;;;;;;7.23;4.57;;;5.10;99.90;;;;;;5042683;28;20669;-67
2023/11/27 16:50:55;;;;;;;9.80;5.13;;;5.10;99.90;;;;;;5046693;28;20267;-67
2023/11/27 16:53:25;;;;;;;8.47;5.03;;;5.10;99.90;;;;;;5045978;28;20209;-67
2023/11/27 16:55:54;;;;;;;8.30;5.10;;;5.10;99.90;;;;;;5047629;28;20203;-66
2023/11/27 16:58:22;;;;;;;7.83;5.23;;;5.10;99.90;;;;;;5029262;28;20203;-67
2023/11/27 17:00:50;;;;;;;8.17;5.20;;;5.00;99.90;;;;;;5046560;28;20336;-66
2023/11/27 17:03:18;;;;;;;8.17;5.07;;;5.10;99.90;;;;;;5044675;28;20203;-67
2023/11/27 17:05:46;;;;;;;9.37;4.83;;;5.00;99.90;;;;;;5046661;28;20276;-67
2023/11/27 17:08:16;;;;;;;8.50;5.23;;;5.00;99.90;;;;;;5045781;28;20676;-67
2023/11/27 17:10:45;;;;;;;11.43;5.10;;;5.00;99.90;;;;;;5047416;28;20198;-67
2023/11/27 17:13:14;;;;;;;7.90;5.00;;;4.90;99.90;;;;;;5042559;28;20191;-68
2023/11/27 17:15:42;;;;;;;6.50;4.40;;;4.90;99.90;;;;;;5046322;28;20592;-68
2023/11/27 17:18:09;;;;;;;6.83;4.50;;;4.90;99.90;;;;;;5040183;28;20223;-67
2023/11/27 17:20:37;;;;;;;7.13;4.47;;;4.90;99.90;;;;;;5028994;28;20214;-67
2023/11/27 17:23:04;;;;;;;10.63;5.20;;;4.80;99.90;;;;;;5044052;28;20194;-67
2023/11/27 17:25:32;;;;;;;10.30;5.60;;;4.80;99.90;;;;;;5043227;28;20323;-67
2023/11/27 17:27:59;;;;;;;13.03;7.27;;;4.90;99.90;;;;;;5044682;28;20203;-67
2023/11/27 17:30:28;;;;;;;12.60;6.43;;;4.90;99.90;;;;;;5046730;28;20245;-67
2023/11/27 17:32:57;;;;;;;10.17;6.00;;;4.90;99.90;;;;;;5021341;28;20252;-67
2023/11/27 17:35:25;;;;;;;10.93;6.30;;;5.00;99.90;;;;;;5028538;28;20297;-66
2023/11/27 17:37:52;;;;;;;10.67;5.93;;;4.90;99.90;;;;;;5042288;28;20200;-66
2023/11/27 17:40:19;;;;;;;12.73;6.53;;;4.90;99.90;;;;;;5047277;28;20212;-67
2023/11/27 17:42:49;;;;;;;13.27;6.20;;;4.90;99.90;;;;;;5051442;28;20608;-67
2023/11/27 17:45:16;;;;;;;11.17;6.07;;;4.80;99.90;;;;;;5026060;28;20290;-67
2023/11/27 17:47:46;;;;;;;9.90;5.70;;;4.80;99.90;;;;;;5044918;28;20290;-67
2023/11/27 17:50:15;;;;;;;10.70;6.00;;;4.70;99.90;;;;;;5028510;28;20201;-68
2023/11/27 17:52:43;;;;;;;11.27;5.67;;;4.80;99.90;;;;;;5043774;28;20508;-67
2023/11/27 17:55:10;;;;;;;10.50;5.83;;;4.80;99.90;;;;;;5029086;28;20195;-66
2023/11/27 17:57:38;;;;;;;9.23;5.27;;;4.80;99.90;;;;;;5041376;28;20206;-67
2023/11/27 18:00:11;;;;;;;9.73;5.53;;;4.80;99.90;;;;;;5040470;28;20287;-67
2023/11/27 18:02:39;;;;;;;9.17;5.70;;;4.90;99.90;;;;;;5038530;28;20234;-67
2023/11/27 18:05:09;;;;;;;10.07;5.70;;;4.90;99.90;;;;;;5042926;28;20280;-67
2023/11/27 18:07:37;;;;;;;10.20;5.23;;;4.90;99.90;;;;;;5046125;28;20543;-67
2023/11/27 18:10:05;;;;;;;11.60;5.77;;;4.90;99.90;;;;;;5017066;28;20248;-67
2023/11/27 18:12:32;;;;;;;9.13;5.30;;;4.90;99.90;;;;;;5041901;28;20194;-66
2023/11/27 18:14:59;;;;;;;8.40;5.17;;;4.90;99.90;;;;;;5043388;28;20190;-66
2023/11/27 18:17:27;;;;;;;8.97;4.83;;;4.90;99.90;;;;;;5042071;28;20201;-67
2023/11/27 18:19:54;;;;;;;8.70;5.23;;;4.80;99.90;;;;;;5023924;28;20218;-67
2023/11/27 18:22:22;;;;;;;14.23;7.47;;;4.80;99.90;;;;;;5050903;28;20218;-66
2023/11/27 18:24:50;;;;;;;19.93;10.07;;;4.80;99.90;;;;;;5052248;28;20186;-66
2023/11/27 18:27:17;;;;;;;20.17;9.53;;;4.80;99.90;;;;;;5051525;28;20245;-66
2023/11/27 18:29:44;;;;;;;23.50;11.27;;;4.80;99.90;;;;;;5047820;28;20700;-66
2023/11/27 18:32:13;;;;;;;31.83;13.33;;;4.70;99.90;;;;;;5051259;28;20225;-67
2023/11/27 18:34:40;;;;;;;26.90;12.37;;;4.70;99.90;;;;;;5029251;28;20201;-66
2023/11/27 18:37:09;;;;;;;30.93;13.73;;;4.60;99.90;;;;;;5044191;28;20247;-66
2023/11/27 18:39:38;;;;;;;32.73;13.70;;;4.50;99.90;;;;;;5048157;28;20540;-67
2023/11/27 18:42:06;;;;;;;32.67;14.70;;;4.50;99.90;;;;;;5051590;28;20199;-66
2023/11/27 18:44:33;;;;;;;32.80;14.17;;;4.50;99.90;;;;;;5047797;28;20278;-67
2023/11/27 18:47:00;;;;;;;29.27;13.13;;;4.40;99.90;;;;;;5049065;28;20217;-67
2023/11/27 18:49:27;;;;;;;32.47;14.67;;;4.40;99.90;;;;;;5049176;28;20263;-67
2023/11/27 18:51:56;;;;;;;29.80;12.90;;;4.40;99.90;;;;;;5049936;28;20645;-67
2023/11/27 18:54:24;;;;;;;25.37;12.00;;;4.40;99.90;;;;;;5051414;28;20194;-66
2023/11/27 18:56:53;;;;;;;20.87;10.47;;;4.10;99.90;;;;;;5041416;28;20557;-67
2023/11/27 18:59:20;;;;;;;24.50;12.50;;;4.40;99.90;;;;;;5042380;28;20261;-66
2023/11/27 19:01:47;;;;;;;21.30;10.90;;;4.40;99.90;;;;;;5046045;28;20713;-67
2023/11/27 19:04:16;;;;;;;19.17;9.67;;;4.40;99.90;;;;;;5050501;28;20253;-67
2023/11/27 19:06:43;;;;;;;18.40;9.33;;;4.40;99.90;;;;;;5047234;28;20649;-67
2023/11/27 19:09:10;;;;;;;18.50;9.63;;;4.40;99.90;;;;;;5051105;28;20673;-66
2023/11/27 19:11:37;;;;;;;16.57;8.43;;;4.40;99.90;;;;;;5049178;28;20206;-68
2023/11/27 19:14:06;;;;;;;16.37;8.53;;;4.40;99.90;;;;;;5033329;28;20202;-67
2023/11/27 19:16:33;;;;;;;16.63;8.70;;;4.40;99.90;;;;;;5048043;28;20205;-67
2023/11/27 19:19:01;;;;;;;16.23;9.73;;;4.30;99.90;;;;;;5032346;28;20212;-67
2023/11/27 19:21:28;;;;;;;16.97;8.57;;;4.80;99.90;;;;;;5051319;28;20224;-67
2023/11/27 19:23:55;;;;;;;18.93;8.33;;;4.20;99.90;;;;;;5051184;28;20252;-67
2023/11/27 19:26:22;;;;;;;14.47;7.30;;;4.30;99.90;;;;;;5045841;28;20271;-67
2023/11/27 19:28:51;;;;;;;14.47;7.80;;;4.30;99.90;;;;;;5050849;28;20284;-67
2023/11/27 19:31:20;;;;;;;14.03;7.47;;;4.30;99.90;;;;;;5041895;28;20237;-67
2023/11/27 19:33:47;;;;;;;15.10;7.53;;;4.40;99.90;;;;;;5028735;28;20265;-68
2023/11/27 19:36:19;;;;;;;24.60;11.30;;;4.40;99.90;;;;;;5027740;28;20297;-67
2023/11/27 19:38:47;;;;;;;51.63;12.97;;;4.40;99.90;;;;;;5029281;28;20633;-67
2023/11/27 19:41:14;;;;;;;19.87;9.87;;;4.40;99.90;;;;;;5037851;28;20316;-68
2023/11/27 19:43:42;;;;;;;17.70;7.90;;;4.40;99.90;;;;;;5016282;28;20661;-67
2023/11/27 19:46:11;;;;;;;9.83;5.90;;;4.30;99.90;;;;;;5044423;28;20209;-68
2023/11/27 19:48:43;;;;;;;7.40;4.87;;;4.30;99.90;;;;;;5025692;28;20210;-68
2023/11/27 19:51:12;;;;;;;4.70;3.33;;;4.30;99.90;;;;;;5045868;28;20224;-67
2023/11/27 19:53:40;;;;;;;4.07;2.40;;;4.30;99.90;;;;;;5028241;28;20679;-67
2023/11/27 19:56:08;;;;;;;3.23;2.70;;;4.20;99.90;;;;;;5048264;28;20273;-67
2023/11/27 19:58:36;;;;;;;3.30;2.53;;;4.20;99.90;;;;;;5048434;28;20605;-67
2023/11/27 20:01:03;;;;;;;3.47;2.33;;;4.20;99.90;;;;;;5047262;28;20708;-67
2023/11/27 20:03:30;;;;;;;2.97;2.67;;;4.20;99.90;;;;;;5047465;28;20313;-67
2023/11/27 20:05:59;;;;;;;2.33;1.90;;;4.10;99.90;;;;;;5050528;28;20278;-67
2023/11/27 20:08:26;;;;;;;3.53;2.60;;;4.10;99.90;;;;;;5042928;28;20411;-67
2023/11/27 20:10:54;;;;;;;3.87;3.00;;;4.10;99.90;;;;;;5049313;28;20256;-67
2023/11/27 20:13:21;;;;;;;4.60;3.20;;;4.10;99.90;;;;;;5049413;28;20193;-67
2023/11/27 20:15:48;;;;;;;3.77;3.07;;;4.10;99.90;;;;;;5048709;28;20252;-67
2023/11/27 20:18:15;;;;;;;3.30;2.60;;;4.10;99.90;;;;;;5031710;28;20619;-67
2023/11/27 20:20:43;;;;;;;4.20;3.10;;;4.10;99.90;;;;;;5027826;28;20581;-67
2023/11/27 20:23:12;;;;;;;4.23;2.93;;;4.10;99.90;;;;;;5031482;28;20205;-67
2023/11/27 20:25:39;;;;;;;3.97;3.20;;;4.10;99.90;;;;;;5050333;28;20270;-67
2023/11/27 20:28:07;;;;;;;5.93;3.60;;;4.10;99.90;;;;;;5049923;28;20263;-66
2023/11/27 20:30:34;;;;;;;10.57;4.70;;;4.10;99.90;;;;;;5049742;28;20247;-68
2023/11/27 20:33:02;;;;;;;10.10;5.70;;;4.10;99.90;;;;;;5048299;28;20339;-67
2023/11/27 20:35:30;;;;;;;11.17;6.10;;;4.10;99.90;;;;;;5049156;28;20530;-66
2023/11/27 20:37:58;;;;;;;12.03;6.53;;;4.00;99.90;;;;;;5047857;28;20197;-67
2023/11/27 20:40:27;;;;;;;11.37;6.23;;;4.00;99.90;;;;;;5049233;28;20244;-67
2023/11/27 20:42:55;;;;;;;11.87;6.27;;;4.00;99.90;;;;;;5044009;28;20205;-67
2023/11/27 20:45:24;;;;;;;11.43;6.50;;;3.90;99.90;;;;;;5047956;28;20278;-67
2023/11/27 20:47:52;;;;;;;11.80;6.70;;;4.00;99.90;;;;;;5048558;28;20665;-66
2023/11/27 20:50:19;;;;;;;9.43;6.37;;;3.90;99.90;;;;;;5032117;28;20285;-67
2023/11/27 20:52:46;;;;;;;9.93;6.10;;;4.00;99.90;;;;;;5043702;28;20206;-66
2023/11/27 20:55:15;;;;;;;10.03;5.53;;;3.90;99.90;;;;;;5044626;28;20194;-66
2023/11/27 20:57:44;;;;;;;13.10;6.93;;;3.90;99.90;;;;;;5023433;28;20728;-67
2023/11/27 21:00:11;;;;;;;13.30;6.67;;;3.90;99.90;;;;;;5048983;28;20229;-67
2023/11/27 21:02:42;;;;;;;14.67;7.67;;;3.80;99.90;;;;;;5047709;28;20236;-67
2023/11/27 21:05:11;;;;;;;18.23;8.90;;;3.80;99.90;;;;;;5048768;28;20200;-67
2023/11/27 21:07:38;;;;;;;19.97;9.40;;;3.70;99.90;;;;;;5038828;28;20198;-67
2023/11/27 21:10:06;;;;;;;23.10;10.63;;;3.70;99.90;;;;;;5048490;28;20193;-66
2023/11/27 21:12:36;;;;;;;24.27;10.80;;;3.60;99.90;;;;;;5030502;28;20197;-66
2023/11/27 21:15:06;;;;;;;24.67;10.37;;;3.60;99.90;;;;;;5031558;28;20217;-66
2023/11/27 21:17:33;;;;;;;24.37;11.10;;;3.60;99.90;;;;;;5026809;28;20214;-66
2023/11/27 21:20:01;;;;;;;22.50;10.80;;;3.50;99.90;;;;;;5049005;28;20227;-66
2023/11/27 21:22:29;;;;;;;21.53;9.70;;;3.50;99.90;;;;;;5042644;28;20307;-67
2023/11/27 21:24:56;;;;;;;20.03;10.30;;;3.50;99.90;;;;;;5031552;28;20699;-66
2023/11/27 21:27:23;;;;;;;23.33;10.50;;;3.50;99.90;;;;;;5044641;28;20744;-66
2023/11/27 21:29:51;;;;;;;26.07;11.43;;;3.50;99.90;;;;;;5048878;28;20255;-67
2023/11/27 21:32:19;;;;;;;20.87;10.43;;;3.50;99.90;;;;;;5048612;28;20295;-67
2023/11/27 21:34:47;;;;;;;25.13;10.90;;;3.40;99.90;;;;;;5045224;28;20198;-70
2023/11/27 21:37:15;;;;;;;21.37;10.07;;;3.40;99.90;;;;;;5053934;28;20205;-70
2023/11/27 21:39:42;;;;;;;25.03;11.43;;;3.40;99.90;;;;;;5027302;28;20197;-71
2023/11/27 21:42:09;;;;;;;19.97;10.23;;;3.40;99.90;;;;;;5045909;28;20271;-71
2023/11/27 21:44:36;;;;;;;22.43;10.13;;;3.30;99.90;;;;;;5023287;28;20198;-68
2023/11/27 21:47:04;;;;;;;20.70;9.87;;;3.30;99.90;;;;;;5021186;28;20642;-67
2023/11/27 21:49:32;;;;;;;19.83;9.57;;;3.20;99.90;;;;;;5048154;28;20277;-67
2023/11/27 21:51:59;;;;;;;18.00;8.60;;;3.20;99.90;;;;;;5047681;28;20194;-68
2023/11/27 21:54:26;;;;;;;19.33;9.27;;;3.10;99.90;;;;;;5046788;28;20248;-68
2023/11/27 21:56:53;;;;;;;22.07;7.90;;;3.10;99.90;;;;;;5050794;28;20201;-73
2023/11/27 21:59:19;;;;;;;20.40;9.27;;;3.10;99.90;;;;;;5027653;28;20248;-72
2023/11/27 22:01:46;;;;;;;20.40;9.10;;;3.20;99.90;;;;;;5032082;28;20246;-71
2023/11/27 22:04:14;;;;;;;17.07;7.87;;;3.10;99.90;;;;;;5030178;28;20206;-72
2023/11/27 22:06:42;;;;;;;17.80;9.07;;;3.10;99.90;;;;;;5031827;28;20207;-71
2023/11/27 22:09:10;;;;;;;18.60;9.13;;;3.00;99.90;;;;;;5030388;28;20268;-73
2023/11/27 22:11:37;;;;;;;16.80;8.77;;;2.90;99.90;;;;;;5033152;28;20261;-71
2023/11/27 22:14:04;;;;;;;17.33;8.10;;;2.90;99.90;;;;;;5032936;28;20650;-73
2023/11/27 22:16:31;;;;;;;16.47;8.40;;;2.80;99.90;;;;;;5025704;28;20201;-71
2023/11/27 22:18:58;;;;;;;18.97;9.37;;;2.80;99.90;;;;;;5032115;28;20213;-72
2023/11/27 22:21:25;;;;;;;18.13;8.83;;;2.80;99.90;;;;;;5033014;28;20313;-72
2023/11/27 22:23:53;;;;;;;21.67;10.33;;;2.90;99.90;;;;;;5032556;28;20273;-73
2023/11/27 22:26:21;;;;;;;19.13;9.13;;;2.90;99.90;;;;;;5031843;28;20195;-72
2023/11/27 22:28:48;;;;;;;19.90;9.73;;;2.90;99.90;;;;;;5032311;28;20209;-72
2023/11/27 22:31:19;;;;;;;18.50;8.50;;;3.00;99.90;;;;;;5033271;28;20195;-71
2023/11/27 22:33:47;;;;;;;18.97;9.20;;;3.00;99.90;;;;;;5027930;28;20709;-71
2023/11/27 22:36:14;;;;;;;15.83;8.23;;;3.00;99.90;;;;;;5029159;28;20206;-71
2023/11/27 22:38:41;;;;;;;18.97;8.87;;;3.10;99.90;;;;;;5032999;28;20205;-71
2023/11/27 22:41:10;;;;;;;21.60;9.53;;;3.10;99.90;;;;;;5029590;28;20217;-71
2023/11/27 22:43:38;;;;;;;19.13;9.27;;;3.10;99.90;;;;;;5031515;28;20198;-71
2023/11/27 22:46:06;;;;;;;16.50;8.13;;;3.10;99.90;;;;;;5033896;28;20197;-71
2023/11/27 22:48:34;;;;;;;18.27;8.33;;;3.10;99.90;;;;;;5032115;28;20203;-71
2023/11/27 22:51:01;;;;;;;17.17;7.83;;;3.10;99.90;;;;;;5032729;28;20205;-71
2023/11/27 22:53:29;;;;;;;13.63;7.33;;;3.00;99.90;;;;;;5031833;28;20245;-71
2023/11/27 22:55:56;;;;;;;12.67;6.73;;;3.00;99.90;;;;;;5030890;28;20195;-71
2023/11/27 22:58:24;;;;;;;14.10;6.40;;;2.90;99.90;;;;;;5029592;28;20199;-72
2023/11/27 23:00:52;;;;;;;13.17;6.63;;;2.90;99.90;;;;;;5031129;28;20234;-71
2023/11/27 23:03:19;;;;;;;12.33;6.57;;;2.90;99.90;;;;;;5027144;28;20195;-71